sensor_id;sensor_type;location;lat;lon;timestamp;P1;durP1;ratioP1;P2;durP2;ratioP2
64031;SDS011;50278;47.796;11.968;2023-03-01T00:01:08;27.80;;;19.20;;
64031;SDS011;50278;47.796;11.968;2023-03-01T00:03:36;31.33;;;20.90;;
64031;SDS011;50278;47.796;11.968;2023-03-01T00:06:01;29.48;;;20.17;;
64031;SDS011;50278;47.796;11.968;2023-03-01T00:08:28;31.67;;;19.42;;
64031;SDS011;50278;47.796;11.968;2023-03-01T00:11:09;29.48;;;19.50;;
64031;SDS011;50278;47.796;11.968;2023-03-01T00:13:37;28.33;;;18.98;;
64031;SDS011;50278;47.796;11.968;2023-03-01T00:16:07;29.05;;;18.65;;
64031;SDS011;50278;47.796;11.968;2023-03-01T00:18:34;28.35;;;18.70;;
64031;SDS011;50278;47.796;11.968;2023-03-01T00:21:00;26.85;;;19.40;;
64031;SDS011;50278;47.796;11.968;2023-03-01T00:23:26;28.67;;;19.95;;
64031;SDS011;50278;47.796;11.968;2023-03-01T00:25:52;28.40;;;20.27;;
64031;SDS011;50278;47.796;11.968;2023-03-01T00:28:18;28.77;;;19.63;;
64031;SDS011;50278;47.796;11.968;2023-03-01T00:30:44;32.55;;;19.13;;
64031;SDS011;50278;47.796;11.968;2023-03-01T00:33:10;28.42;;;19.38;;
64031;SDS011;50278;47.796;11.968;2023-03-01T00:35:36;26.92;;;19.73;;
64031;SDS011;50278;47.796;11.968;2023-03-01T00:38:02;30.35;;;20.35;;
64031;SDS011;50278;47.796;11.968;2023-03-01T00:40:29;29.55;;;19.92;;
64031;SDS011;50278;47.796;11.968;2023-03-01T00:42:57;30.70;;;20.55;;
64031;SDS011;50278;47.796;11.968;2023-03-01T00:45:23;30.02;;;21.10;;
64031;SDS011;50278;47.796;11.968;2023-03-01T00:47:49;28.65;;;20.02;;
64031;SDS011;50278;47.796;11.968;2023-03-01T00:50:16;30.58;;;19.67;;
64031;SDS011;50278;47.796;11.968;2023-03-01T00:52:42;28.30;;;20.20;;
64031;SDS011;50278;47.796;11.968;2023-03-01T00:55:08;29.92;;;20.35;;
64031;SDS011;50278;47.796;11.968;2023-03-01T00:57:34;29.85;;;20.05;;
64031;SDS011;50278;47.796;11.968;2023-03-01T00:59:59;28.83;;;19.38;;
64031;SDS011;50278;47.796;11.968;2023-03-01T01:02:25;29.60;;;19.67;;
64031;SDS011;50278;47.796;11.968;2023-03-01T01:04:51;29.95;;;20.48;;
64031;SDS011;50278;47.796;11.968;2023-03-01T01:07:16;28.80;;;19.75;;
64031;SDS011;50278;47.796;11.968;2023-03-01T01:09:42;30.52;;;20.83;;
64031;SDS011;50278;47.796;11.968;2023-03-01T01:12:08;30.65;;;19.35;;
64031;SDS011;50278;47.796;11.968;2023-03-01T01:14:34;30.40;;;19.63;;
64031;SDS011;50278;47.796;11.968;2023-03-01T01:17:00;29.25;;;18.90;;
64031;SDS011;50278;47.796;11.968;2023-03-01T01:19:26;31.08;;;20.08;;
64031;SDS011;50278;47.796;11.968;2023-03-01T01:21:53;28.77;;;19.73;;
64031;SDS011;50278;47.796;11.968;2023-03-01T01:24:18;31.67;;;21.00;;
64031;SDS011;50278;47.796;11.968;2023-03-01T01:26:44;28.00;;;20.05;;
64031;SDS011;50278;47.796;11.968;2023-03-01T01:29:10;27.40;;;20.25;;
64031;SDS011;50278;47.796;11.968;2023-03-01T01:31:36;33.38;;;20.30;;
64031;SDS011;50278;47.796;11.968;2023-03-01T01:34:04;28.55;;;18.27;;
64031;SDS011;50278;47.796;11.968;2023-03-01T01:36:31;29.73;;;19.67;;
64031;SDS011;50278;47.796;11.968;2023-03-01T01:38:57;30.33;;;20.05;;
64031;SDS011;50278;47.796;11.968;2023-03-01T01:41:23;27.25;;;18.83;;
64031;SDS011;50278;47.796;11.968;2023-03-01T01:44:09;29.02;;;20.08;;
64031;SDS011;50278;47.796;11.968;2023-03-01T01:46:43;28.52;;;19.17;;
64031;SDS011;50278;47.796;11.968;2023-03-01T01:52:22;28.40;;;19.05;;
64031;SDS011;50278;47.796;11.968;2023-03-01T01:54:57;28.35;;;18.75;;
64031;SDS011;50278;47.796;11.968;2023-03-01T01:57:30;28.17;;;19.67;;
64031;SDS011;50278;47.796;11.968;2023-03-01T02:00:08;29.35;;;19.58;;
64031;SDS011;50278;47.796;11.968;2023-03-01T02:02:46;27.83;;;18.58;;
64031;SDS011;50278;47.796;11.968;2023-03-01T02:08:14;26.95;;;18.45;;
64031;SDS011;50278;47.796;11.968;2023-03-01T02:10:42;27.15;;;19.00;;
64031;SDS011;50278;47.796;11.968;2023-03-01T02:13:09;29.80;;;20.05;;
64031;SDS011;50278;47.796;11.968;2023-03-01T02:15:36;29.88;;;19.95;;
64031;SDS011;50278;47.796;11.968;2023-03-01T02:18:05;27.13;;;18.63;;
64031;SDS011;50278;47.796;11.968;2023-03-01T02:23:17;30.00;;;18.88;;
64031;SDS011;50278;47.796;11.968;2023-03-01T02:25:56;28.15;;;19.02;;
64031;SDS011;50278;47.796;11.968;2023-03-01T02:30:55;30.02;;;19.42;;
64031;SDS011;50278;47.796;11.968;2023-03-01T02:33:40;26.02;;;18.65;;
64031;SDS011;50278;47.796;11.968;2023-03-01T02:36:08;32.08;;;21.70;;
64031;SDS011;50278;47.796;11.968;2023-03-01T02:38:38;30.08;;;19.38;;
64031;SDS011;50278;47.796;11.968;2023-03-01T02:41:05;28.52;;;19.65;;
64031;SDS011;50278;47.796;11.968;2023-03-01T02:43:33;29.90;;;19.38;;
64031;SDS011;50278;47.796;11.968;2023-03-01T02:46:05;27.95;;;20.15;;
64031;SDS011;50278;47.796;11.968;2023-03-01T02:49:16;28.50;;;19.23;;
64031;SDS011;50278;47.796;11.968;2023-03-01T02:54:23;25.27;;;17.58;;
64031;SDS011;50278;47.796;11.968;2023-03-01T02:57:01;31.90;;;19.63;;
64031;SDS011;50278;47.796;11.968;2023-03-01T02:59:30;27.75;;;18.60;;
64031;SDS011;50278;47.796;11.968;2023-03-01T03:02:05;28.60;;;19.13;;
64031;SDS011;50278;47.796;11.968;2023-03-01T03:04:32;26.88;;;18.35;;
64031;SDS011;50278;47.796;11.968;2023-03-01T03:06:58;26.33;;;17.52;;
64031;SDS011;50278;47.796;11.968;2023-03-01T03:09:24;30.30;;;19.65;;
64031;SDS011;50278;47.796;11.968;2023-03-01T03:11:50;26.80;;;18.38;;
64031;SDS011;50278;47.796;11.968;2023-03-01T03:14:16;27.23;;;18.52;;
64031;SDS011;50278;47.796;11.968;2023-03-01T03:16:45;27.83;;;18.50;;
64031;SDS011;50278;47.796;11.968;2023-03-01T03:19:15;28.35;;;18.77;;
64031;SDS011;50278;47.796;11.968;2023-03-01T03:21:42;28.02;;;19.20;;
64031;SDS011;50278;47.796;11.968;2023-03-01T03:24:08;27.10;;;17.85;;
64031;SDS011;50278;47.796;11.968;2023-03-01T03:26:33;27.73;;;18.10;;
64031;SDS011;50278;47.796;11.968;2023-03-01T03:28:59;28.15;;;18.83;;
64031;SDS011;50278;47.796;11.968;2023-03-01T03:31:25;28.60;;;19.85;;
64031;SDS011;50278;47.796;11.968;2023-03-01T03:33:51;23.90;;;17.17;;
64031;SDS011;50278;47.796;11.968;2023-03-01T03:36:17;27.95;;;18.55;;
64031;SDS011;50278;47.796;11.968;2023-03-01T03:38:46;26.73;;;17.67;;
64031;SDS011;50278;47.796;11.968;2023-03-01T03:41:12;25.50;;;18.52;;
64031;SDS011;50278;47.796;11.968;2023-03-01T03:43:38;28.75;;;19.00;;
64031;SDS011;50278;47.796;11.968;2023-03-01T03:46:05;30.27;;;18.85;;
64031;SDS011;50278;47.796;11.968;2023-03-01T03:48:36;25.77;;;18.95;;
64031;SDS011;50278;47.796;11.968;2023-03-01T03:51:03;26.23;;;17.65;;
64031;SDS011;50278;47.796;11.968;2023-03-01T03:53:32;24.80;;;18.50;;
64031;SDS011;50278;47.796;11.968;2023-03-01T03:55:58;27.52;;;17.73;;
64031;SDS011;50278;47.796;11.968;2023-03-01T03:58:24;27.15;;;17.85;;
64031;SDS011;50278;47.796;11.968;2023-03-01T04:00:52;24.63;;;17.25;;
64031;SDS011;50278;47.796;11.968;2023-03-01T04:03:20;25.77;;;19.13;;
64031;SDS011;50278;47.796;11.968;2023-03-01T04:05:47;28.13;;;18.58;;
64031;SDS011;50278;47.796;11.968;2023-03-01T04:08:15;26.75;;;18.42;;
64031;SDS011;50278;47.796;11.968;2023-03-01T04:10:43;28.48;;;19.98;;
64031;SDS011;50278;47.796;11.968;2023-03-01T04:13:14;25.77;;;17.40;;
64031;SDS011;50278;47.796;11.968;2023-03-01T04:15:42;26.95;;;17.85;;
64031;SDS011;50278;47.796;11.968;2023-03-01T04:18:11;29.63;;;18.13;;
64031;SDS011;50278;47.796;11.968;2023-03-01T04:20:38;26.00;;;18.30;;
64031;SDS011;50278;47.796;11.968;2023-03-01T04:23:08;27.30;;;17.55;;
64031;SDS011;50278;47.796;11.968;2023-03-01T04:25:51;24.77;;;17.52;;
64031;SDS011;50278;47.796;11.968;2023-03-01T04:28:24;22.98;;;15.32;;
64031;SDS011;50278;47.796;11.968;2023-03-01T04:30:50;20.70;;;15.43;;
64031;SDS011;50278;47.796;11.968;2023-03-01T04:33:16;21.13;;;15.68;;
64031;SDS011;50278;47.796;11.968;2023-03-01T04:35:42;24.30;;;16.20;;
64031;SDS011;50278;47.796;11.968;2023-03-01T04:38:08;20.88;;;14.80;;
64031;SDS011;50278;47.796;11.968;2023-03-01T04:40:34;19.77;;;14.05;;
64031;SDS011;50278;47.796;11.968;2023-03-01T04:43:00;20.55;;;13.65;;
64031;SDS011;50278;47.796;11.968;2023-03-01T04:45:27;21.77;;;15.35;;
64031;SDS011;50278;47.796;11.968;2023-03-01T04:47:52;19.15;;;13.10;;
64031;SDS011;50278;47.796;11.968;2023-03-01T04:50:18;18.80;;;13.20;;
64031;SDS011;50278;47.796;11.968;2023-03-01T04:52:48;17.50;;;12.43;;
64031;SDS011;50278;47.796;11.968;2023-03-01T04:55:14;17.73;;;12.82;;
64031;SDS011;50278;47.796;11.968;2023-03-01T04:57:40;17.67;;;12.20;;
64031;SDS011;50278;47.796;11.968;2023-03-01T05:00:07;18.05;;;12.57;;
64031;SDS011;50278;47.796;11.968;2023-03-01T05:03:02;21.73;;;14.32;;
64031;SDS011;50278;47.796;11.968;2023-03-01T05:05:32;17.95;;;12.82;;
64031;SDS011;50278;47.796;11.968;2023-03-01T05:08:00;18.73;;;13.30;;
64031;SDS011;50278;47.796;11.968;2023-03-01T05:10:29;19.65;;;13.82;;
64031;SDS011;50278;47.796;11.968;2023-03-01T05:12:57;20.00;;;14.45;;
64031;SDS011;50278;47.796;11.968;2023-03-01T05:15:24;21.48;;;13.98;;
64031;SDS011;50278;47.796;11.968;2023-03-01T05:17:51;20.60;;;13.73;;
64031;SDS011;50278;47.796;11.968;2023-03-01T05:20:17;18.67;;;13.00;;
64031;SDS011;50278;47.796;11.968;2023-03-01T05:22:48;19.50;;;13.68;;
64031;SDS011;50278;47.796;11.968;2023-03-01T05:25:14;21.02;;;14.02;;
64031;SDS011;50278;47.796;11.968;2023-03-01T05:27:39;20.85;;;14.88;;
64031;SDS011;50278;47.796;11.968;2023-03-01T05:30:05;16.45;;;12.38;;
64031;SDS011;50278;47.796;11.968;2023-03-01T05:32:39;19.20;;;13.43;;
64031;SDS011;50278;47.796;11.968;2023-03-01T05:35:10;16.48;;;12.02;;
64031;SDS011;50278;47.796;11.968;2023-03-01T05:37:39;21.10;;;15.00;;
64031;SDS011;50278;47.796;11.968;2023-03-01T05:40:07;20.17;;;13.75;;
64031;SDS011;50278;47.796;11.968;2023-03-01T05:42:41;31.38;;;20.85;;
64031;SDS011;50278;47.796;11.968;2023-03-01T05:45:11;25.50;;;17.38;;
64031;SDS011;50278;47.796;11.968;2023-03-01T05:47:38;22.13;;;14.35;;
64031;SDS011;50278;47.796;11.968;2023-03-01T05:50:09;20.98;;;12.65;;
64031;SDS011;50278;47.796;11.968;2023-03-01T05:52:46;20.33;;;13.70;;
64031;SDS011;50278;47.796;11.968;2023-03-01T05:55:22;17.65;;;12.77;;
64031;SDS011;50278;47.796;11.968;2023-03-01T05:57:48;21.05;;;12.30;;
64031;SDS011;50278;47.796;11.968;2023-03-01T06:00:18;18.35;;;12.43;;
64031;SDS011;50278;47.796;11.968;2023-03-01T06:02:48;18.80;;;12.98;;
64031;SDS011;50278;47.796;11.968;2023-03-01T06:05:26;16.80;;;11.98;;
64031;SDS011;50278;47.796;11.968;2023-03-01T06:07:53;22.35;;;14.50;;
64031;SDS011;50278;47.796;11.968;2023-03-01T06:10:19;19.67;;;13.65;;
64031;SDS011;50278;47.796;11.968;2023-03-01T06:12:46;22.95;;;14.23;;
64031;SDS011;50278;47.796;11.968;2023-03-01T06:15:13;20.65;;;14.25;;
64031;SDS011;50278;47.796;11.968;2023-03-01T06:17:41;21.35;;;14.48;;
64031;SDS011;50278;47.796;11.968;2023-03-01T06:20:18;23.75;;;16.98;;
64031;SDS011;50278;47.796;11.968;2023-03-01T06:22:46;22.92;;;15.75;;
64031;SDS011;50278;47.796;11.968;2023-03-01T06:25:13;20.83;;;15.20;;
64031;SDS011;50278;47.796;11.968;2023-03-01T06:27:40;21.85;;;14.85;;
64031;SDS011;50278;47.796;11.968;2023-03-01T06:30:07;20.40;;;14.30;;
64031;SDS011;50278;47.796;11.968;2023-03-01T06:32:34;18.83;;;13.50;;
64031;SDS011;50278;47.796;11.968;2023-03-01T06:35:00;21.70;;;14.93;;
64031;SDS011;50278;47.796;11.968;2023-03-01T06:37:25;21.27;;;16.73;;
64031;SDS011;50278;47.796;11.968;2023-03-01T06:39:51;21.15;;;15.98;;
64031;SDS011;50278;47.796;11.968;2023-03-01T06:42:17;19.35;;;13.65;;
64031;SDS011;50278;47.796;11.968;2023-03-01T06:44:43;25.63;;;16.70;;
64031;SDS011;50278;47.796;11.968;2023-03-01T06:47:09;20.48;;;15.00;;
64031;SDS011;50278;47.796;11.968;2023-03-01T06:49:35;18.13;;;12.90;;
64031;SDS011;50278;47.796;11.968;2023-03-01T06:52:00;17.05;;;12.10;;
64031;SDS011;50278;47.796;11.968;2023-03-01T06:54:26;15.70;;;12.07;;
64031;SDS011;50278;47.796;11.968;2023-03-01T06:56:51;15.50;;;12.27;;
64031;SDS011;50278;47.796;11.968;2023-03-01T06:59:17;16.88;;;12.05;;
64031;SDS011;50278;47.796;11.968;2023-03-01T07:01:42;19.35;;;12.93;;
64031;SDS011;50278;47.796;11.968;2023-03-01T07:04:09;18.75;;;13.60;;
64031;SDS011;50278;47.796;11.968;2023-03-01T07:06:35;18.60;;;13.10;;
64031;SDS011;50278;47.796;11.968;2023-03-01T07:09:00;18.55;;;12.95;;
64031;SDS011;50278;47.796;11.968;2023-03-01T07:11:26;19.38;;;13.30;;
64031;SDS011;50278;47.796;11.968;2023-03-01T07:13:52;19.75;;;13.35;;
64031;SDS011;50278;47.796;11.968;2023-03-01T07:16:17;28.70;;;18.17;;
64031;SDS011;50278;47.796;11.968;2023-03-01T07:18:43;20.30;;;13.57;;
64031;SDS011;50278;47.796;11.968;2023-03-01T07:21:09;17.65;;;12.27;;
64031;SDS011;50278;47.796;11.968;2023-03-01T07:23:37;19.23;;;13.75;;
64031;SDS011;50278;47.796;11.968;2023-03-01T07:26:02;21.92;;;13.85;;
64031;SDS011;50278;47.796;11.968;2023-03-01T07:28:28;21.02;;;15.18;;
64031;SDS011;50278;47.796;11.968;2023-03-01T07:30:54;21.23;;;13.45;;
64031;SDS011;50278;47.796;11.968;2023-03-01T07:33:19;17.98;;;12.68;;
64031;SDS011;50278;47.796;11.968;2023-03-01T07:35:45;17.83;;;12.77;;
64031;SDS011;50278;47.796;11.968;2023-03-01T07:38:10;18.85;;;11.98;;
64031;SDS011;50278;47.796;11.968;2023-03-01T07:40:36;16.55;;;12.55;;
64031;SDS011;50278;47.796;11.968;2023-03-01T07:43:01;16.33;;;11.73;;
64031;SDS011;50278;47.796;11.968;2023-03-01T07:45:27;19.48;;;13.00;;
64031;SDS011;50278;47.796;11.968;2023-03-01T07:47:54;16.98;;;12.60;;
64031;SDS011;50278;47.796;11.968;2023-03-01T07:50:21;19.63;;;13.27;;
64031;SDS011;50278;47.796;11.968;2023-03-01T07:52:47;18.08;;;12.88;;
64031;SDS011;50278;47.796;11.968;2023-03-01T07:55:14;18.88;;;12.88;;
64031;SDS011;50278;47.796;11.968;2023-03-01T07:57:40;18.45;;;12.48;;
64031;SDS011;50278;47.796;11.968;2023-03-01T08:00:06;16.85;;;11.77;;
64031;SDS011;50278;47.796;11.968;2023-03-01T08:02:37;12.77;;;9.65;;
64031;SDS011;50278;47.796;11.968;2023-03-01T08:05:02;19.15;;;12.48;;
64031;SDS011;50278;47.796;11.968;2023-03-01T08:07:28;15.93;;;11.25;;
64031;SDS011;50278;47.796;11.968;2023-03-01T08:09:54;17.23;;;12.18;;
64031;SDS011;50278;47.796;11.968;2023-03-01T08:12:19;16.77;;;12.05;;
64031;SDS011;50278;47.796;11.968;2023-03-01T08:14:45;16.60;;;12.25;;
64031;SDS011;50278;47.796;11.968;2023-03-01T08:17:12;18.52;;;12.77;;
64031;SDS011;50278;47.796;11.968;2023-03-01T08:19:39;15.80;;;11.45;;
64031;SDS011;50278;47.796;11.968;2023-03-01T08:22:04;17.95;;;11.93;;
64031;SDS011;50278;47.796;11.968;2023-03-01T08:24:30;16.98;;;12.27;;
64031;SDS011;50278;47.796;11.968;2023-03-01T08:26:55;15.38;;;11.73;;
64031;SDS011;50278;47.796;11.968;2023-03-01T08:29:21;16.73;;;11.38;;
64031;SDS011;50278;47.796;11.968;2023-03-01T08:31:47;16.60;;;12.13;;
64031;SDS011;50278;47.796;11.968;2023-03-01T08:34:16;16.85;;;13.20;;
64031;SDS011;50278;47.796;11.968;2023-03-01T08:36:43;16.80;;;11.75;;
64031;SDS011;50278;47.796;11.968;2023-03-01T08:39:11;15.80;;;12.82;;
64031;SDS011;50278;47.796;11.968;2023-03-01T08:41:37;17.70;;;11.93;;
64031;SDS011;50278;47.796;11.968;2023-03-01T08:44:04;17.02;;;11.85;;
64031;SDS011;50278;47.796;11.968;2023-03-01T08:46:33;16.98;;;12.43;;
64031;SDS011;50278;47.796;11.968;2023-03-01T08:49:13;15.90;;;11.95;;
64031;SDS011;50278;47.796;11.968;2023-03-01T08:51:42;16.63;;;12.52;;
64031;SDS011;50278;47.796;11.968;2023-03-01T08:54:10;16.08;;;12.68;;
64031;SDS011;50278;47.796;11.968;2023-03-01T08:56:38;16.85;;;11.80;;
64031;SDS011;50278;47.796;11.968;2023-03-01T08:59:04;15.77;;;11.30;;
64031;SDS011;50278;47.796;11.968;2023-03-01T09:01:29;16.40;;;12.48;;
64031;SDS011;50278;47.796;11.968;2023-03-01T09:03:55;16.83;;;13.10;;
64031;SDS011;50278;47.796;11.968;2023-03-01T09:06:21;17.60;;;12.70;;
64031;SDS011;50278;47.796;11.968;2023-03-01T09:08:47;16.45;;;13.77;;
64031;SDS011;50278;47.796;11.968;2023-03-01T09:11:15;15.63;;;12.40;;
64031;SDS011;50278;47.796;11.968;2023-03-01T09:13:44;15.77;;;11.68;;
64031;SDS011;50278;47.796;11.968;2023-03-01T09:16:11;15.10;;;12.30;;
64031;SDS011;50278;47.796;11.968;2023-03-01T09:18:38;17.83;;;12.57;;
64031;SDS011;50278;47.796;11.968;2023-03-01T09:21:05;16.17;;;12.48;;
64031;SDS011;50278;47.796;11.968;2023-03-01T09:23:35;16.85;;;12.32;;
64031;SDS011;50278;47.796;11.968;2023-03-01T09:26:02;15.73;;;11.93;;
64031;SDS011;50278;47.796;11.968;2023-03-01T09:28:28;14.85;;;12.32;;
64031;SDS011;50278;47.796;11.968;2023-03-01T09:30:53;15.82;;;12.30;;
64031;SDS011;50278;47.796;11.968;2023-03-01T09:33:23;20.38;;;13.45;;
64031;SDS011;50278;47.796;11.968;2023-03-01T09:35:48;20.33;;;14.80;;
64031;SDS011;50278;47.796;11.968;2023-03-01T09:38:14;19.38;;;13.27;;
64031;SDS011;50278;47.796;11.968;2023-03-01T09:40:43;16.40;;;12.10;;
64031;SDS011;50278;47.796;11.968;2023-03-01T09:43:15;20.10;;;14.00;;
64031;SDS011;50278;47.796;11.968;2023-03-01T09:45:49;16.73;;;13.02;;
64031;SDS011;50278;47.796;11.968;2023-03-01T09:48:19;26.70;;;17.13;;
64031;SDS011;50278;47.796;11.968;2023-03-01T09:50:49;32.42;;;22.70;;
64031;SDS011;50278;47.796;11.968;2023-03-01T09:53:17;24.63;;;14.68;;
64031;SDS011;50278;47.796;11.968;2023-03-01T09:58:38;18.02;;;13.05;;
64031;SDS011;50278;47.796;11.968;2023-03-01T10:01:34;16.15;;;12.55;;
64031;SDS011;50278;47.796;11.968;2023-03-01T10:06:52;17.88;;;13.95;;
64031;SDS011;50278;47.796;11.968;2023-03-01T10:09:30;18.20;;;12.85;;
64031;SDS011;50278;47.796;11.968;2023-03-01T10:11:59;17.15;;;12.88;;
64031;SDS011;50278;47.796;11.968;2023-03-01T10:20:21;15.38;;;12.50;;
64031;SDS011;50278;47.796;11.968;2023-03-01T10:22:49;18.25;;;13.90;;
64031;SDS011;50278;47.796;11.968;2023-03-01T10:28:02;16.77;;;12.18;;
64031;SDS011;50278;47.796;11.968;2023-03-01T10:30:39;25.67;;;13.68;;
64031;SDS011;50278;47.796;11.968;2023-03-01T10:35:48;17.23;;;12.93;;
64031;SDS011;50278;47.796;11.968;2023-03-01T10:38:15;20.95;;;13.65;;
64031;SDS011;50278;47.796;11.968;2023-03-01T10:43:15;15.32;;;12.25;;
64031;SDS011;50278;47.796;11.968;2023-03-01T10:45:41;17.30;;;12.57;;
64031;SDS011;50278;47.796;11.968;2023-03-01T10:48:20;15.55;;;12.57;;
64031;SDS011;50278;47.796;11.968;2023-03-01T10:51:12;18.38;;;14.45;;
64031;SDS011;50278;47.796;11.968;2023-03-01T10:53:42;22.95;;;14.05;;
64031;SDS011;50278;47.796;11.968;2023-03-01T10:56:13;17.38;;;13.27;;
64031;SDS011;50278;47.796;11.968;2023-03-01T11:04:02;15.48;;;12.25;;
64031;SDS011;50278;47.796;11.968;2023-03-01T11:06:36;16.50;;;12.90;;
64031;SDS011;50278;47.796;11.968;2023-03-01T11:11:43;16.52;;;12.85;;
64031;SDS011;50278;47.796;11.968;2023-03-01T11:14:17;17.55;;;12.82;;
64031;SDS011;50278;47.796;11.968;2023-03-01T11:16:46;17.45;;;13.15;;
64031;SDS011;50278;47.796;11.968;2023-03-01T11:19:15;15.60;;;11.63;;
64031;SDS011;50278;47.796;11.968;2023-03-01T11:21:44;19.13;;;13.25;;
64031;SDS011;50278;47.796;11.968;2023-03-01T11:24:18;15.43;;;12.52;;
64031;SDS011;50278;47.796;11.968;2023-03-01T11:26:46;19.10;;;14.68;;
64031;SDS011;50278;47.796;11.968;2023-03-01T11:29:38;15.68;;;13.27;;
64031;SDS011;50278;47.796;11.968;2023-03-01T11:32:05;15.07;;;12.80;;
64031;SDS011;50278;47.796;11.968;2023-03-01T11:37:35;14.45;;;11.88;;
64031;SDS011;50278;47.796;11.968;2023-03-01T11:40:13;16.98;;;12.25;;
64031;SDS011;50278;47.796;11.968;2023-03-01T11:45:39;13.15;;;11.75;;
64031;SDS011;50278;47.796;11.968;2023-03-01T11:54:16;16.85;;;13.43;;
64031;SDS011;50278;47.796;11.968;2023-03-01T11:56:57;16.83;;;12.57;;
64031;SDS011;50278;47.796;11.968;2023-03-01T12:07:51;11.65;;;8.75;;
64031;SDS011;50278;47.796;11.968;2023-03-01T12:10:35;17.33;;;13.30;;
64031;SDS011;50278;47.796;11.968;2023-03-01T12:13:47;17.45;;;13.48;;
64031;SDS011;50278;47.796;11.968;2023-03-01T12:24:39;15.68;;;11.95;;
64031;SDS011;50278;47.796;11.968;2023-03-01T12:32:47;17.70;;;12.98;;
64031;SDS011;50278;47.796;11.968;2023-03-01T12:38:06;16.58;;;12.27;;
64031;SDS011;50278;47.796;11.968;2023-03-01T12:40:36;14.48;;;11.93;;
64031;SDS011;50278;47.796;11.968;2023-03-01T12:46:06;15.50;;;12.10;;
64031;SDS011;50278;47.796;11.968;2023-03-01T12:51:37;14.40;;;11.80;;
64031;SDS011;50278;47.796;11.968;2023-03-01T12:54:11;18.10;;;13.13;;
64031;SDS011;50278;47.796;11.968;2023-03-01T12:56:40;18.80;;;12.65;;
64031;SDS011;50278;47.796;11.968;2023-03-01T13:04:27;13.77;;;11.50;;
64031;SDS011;50278;47.796;11.968;2023-03-01T13:17:48;15.38;;;11.85;;
64031;SDS011;50278;47.796;11.968;2023-03-01T13:25:33;14.00;;;10.82;;
64031;SDS011;50278;47.796;11.968;2023-03-01T13:33:44;12.15;;;10.70;;
64031;SDS011;50278;47.796;11.968;2023-03-01T13:46:46;10.73;;;9.63;;
64031;SDS011;50278;47.796;11.968;2023-03-01T13:49:14;13.05;;;10.32;;
64031;SDS011;50278;47.796;11.968;2023-03-01T13:51:42;11.77;;;10.63;;
64031;SDS011;50278;47.796;11.968;2023-03-01T13:54:12;11.95;;;10.68;;
64031;SDS011;50278;47.796;11.968;2023-03-01T13:56:39;12.57;;;11.27;;
64031;SDS011;50278;47.796;11.968;2023-03-01T13:59:21;11.88;;;10.68;;
64031;SDS011;50278;47.796;11.968;2023-03-01T14:01:54;10.98;;;9.98;;
64031;SDS011;50278;47.796;11.968;2023-03-01T14:04:22;12.23;;;10.80;;
64031;SDS011;50278;47.796;11.968;2023-03-01T14:06:48;11.73;;;10.45;;
64031;SDS011;50278;47.796;11.968;2023-03-01T14:09:24;12.07;;;10.30;;
64031;SDS011;50278;47.796;11.968;2023-03-01T14:11:56;13.15;;;11.88;;
64031;SDS011;50278;47.796;11.968;2023-03-01T14:20:30;13.35;;;11.93;;
64031;SDS011;50278;47.796;11.968;2023-03-01T14:23:01;12.48;;;11.20;;
64031;SDS011;50278;47.796;11.968;2023-03-01T14:25:34;12.35;;;11.02;;
64031;SDS011;50278;47.796;11.968;2023-03-01T14:28:14;11.73;;;10.50;;
64031;SDS011;50278;47.796;11.968;2023-03-01T14:30:45;13.32;;;11.98;;
64031;SDS011;50278;47.796;11.968;2023-03-01T14:33:31;11.52;;;10.43;;
64031;SDS011;50278;47.796;11.968;2023-03-01T14:36:05;12.55;;;10.73;;
64031;SDS011;50278;47.796;11.968;2023-03-01T14:38:32;10.95;;;9.80;;
64031;SDS011;50278;47.796;11.968;2023-03-01T14:41:09;12.15;;;10.95;;
64031;SDS011;50278;47.796;11.968;2023-03-01T14:43:44;11.98;;;10.77;;
64031;SDS011;50278;47.796;11.968;2023-03-01T14:46:23;11.27;;;10.18;;
64031;SDS011;50278;47.796;11.968;2023-03-01T14:51:34;17.20;;;15.57;;
64031;SDS011;50278;47.796;11.968;2023-03-01T14:54:02;13.50;;;12.30;;
64031;SDS011;50278;47.796;11.968;2023-03-01T14:56:28;11.68;;;10.55;;
64031;SDS011;50278;47.796;11.968;2023-03-01T14:59:08;11.60;;;10.50;;
64031;SDS011;50278;47.796;11.968;2023-03-01T15:01:34;10.95;;;9.93;;
64031;SDS011;50278;47.796;11.968;2023-03-01T15:04:00;10.65;;;9.73;;
64031;SDS011;50278;47.796;11.968;2023-03-01T15:06:27;11.30;;;10.18;;
64031;SDS011;50278;47.796;11.968;2023-03-01T15:08:53;9.93;;;9.00;;
64031;SDS011;50278;47.796;11.968;2023-03-01T15:11:31;11.00;;;10.00;;
64031;SDS011;50278;47.796;11.968;2023-03-01T15:13:58;10.40;;;9.25;;
64031;SDS011;50278;47.796;11.968;2023-03-01T15:16:31;10.60;;;9.60;;
64031;SDS011;50278;47.796;11.968;2023-03-01T15:19:00;11.63;;;10.48;;
64031;SDS011;50278;47.796;11.968;2023-03-01T15:21:32;11.60;;;10.18;;
64031;SDS011;50278;47.796;11.968;2023-03-01T15:26:40;11.35;;;10.25;;
64031;SDS011;50278;47.796;11.968;2023-03-01T15:29:15;13.35;;;9.77;;
64031;SDS011;50278;47.796;11.968;2023-03-01T15:31:47;11.88;;;10.18;;
64031;SDS011;50278;47.796;11.968;2023-03-01T15:34:21;12.52;;;10.82;;
64031;SDS011;50278;47.796;11.968;2023-03-01T15:36:50;15.57;;;14.18;;
64031;SDS011;50278;47.796;11.968;2023-03-01T15:39:26;11.07;;;9.80;;
64031;SDS011;50278;47.796;11.968;2023-03-01T15:42:10;12.57;;;11.20;;
64031;SDS011;50278;47.796;11.968;2023-03-01T15:47:35;13.32;;;10.77;;
64031;SDS011;50278;47.796;11.968;2023-03-01T15:50:03;12.02;;;10.88;;
64031;SDS011;50278;47.796;11.968;2023-03-01T15:52:34;11.70;;;10.60;;
64031;SDS011;50278;47.796;11.968;2023-03-01T15:55:26;11.68;;;10.55;;
64031;SDS011;50278;47.796;11.968;2023-03-01T15:58:03;13.43;;;10.77;;
64031;SDS011;50278;47.796;11.968;2023-03-01T16:00:32;16.05;;;12.38;;
64031;SDS011;50278;47.796;11.968;2023-03-01T16:02:58;13.80;;;12.38;;
64031;SDS011;50278;47.796;11.968;2023-03-01T16:05:25;14.13;;;11.65;;
64031;SDS011;50278;47.796;11.968;2023-03-01T16:07:58;14.43;;;12.18;;
64031;SDS011;50278;47.796;11.968;2023-03-01T16:10:24;16.42;;;13.48;;
64031;SDS011;50278;47.796;11.968;2023-03-01T16:12:50;16.85;;;12.65;;
64031;SDS011;50278;47.796;11.968;2023-03-01T16:15:18;18.02;;;14.30;;
64031;SDS011;50278;47.796;11.968;2023-03-01T16:17:46;16.85;;;12.38;;
64031;SDS011;50278;47.796;11.968;2023-03-01T16:20:20;18.75;;;14.00;;
64031;SDS011;50278;47.796;11.968;2023-03-01T16:22:46;21.48;;;15.43;;
64031;SDS011;50278;47.796;11.968;2023-03-01T16:25:13;22.23;;;14.10;;
64031;SDS011;50278;47.796;11.968;2023-03-01T16:27:44;20.13;;;14.18;;
64031;SDS011;50278;47.796;11.968;2023-03-01T16:30:11;24.05;;;14.73;;
64031;SDS011;50278;47.796;11.968;2023-03-01T16:32:39;22.15;;;15.20;;
64031;SDS011;50278;47.796;11.968;2023-03-01T16:35:08;22.35;;;15.02;;
64031;SDS011;50278;47.796;11.968;2023-03-01T16:37:35;24.65;;;16.02;;